sensor_id;sensor_type;location;lat;lon;timestamp;temperature;humidity
69731;SHT31;56996;48.138;11.538;2023-07-13T00:01:54;20.36;76.62
69731;SHT31;56996;48.138;11.538;2023-07-13T00:04:22;20.34;76.69
69731;SHT31;56996;48.138;11.538;2023-07-13T00:06:56;20.34;76.84
69731;SHT31;56996;48.138;11.538;2023-07-13T00:09:24;20.31;77.07
69731;SHT31;56996;48.138;11.538;2023-07-13T00:11:51;20.30;77.17
69731;SHT31;56996;48.138;11.538;2023-07-13T00:14:22;20.29;77.26
69731;SHT31;56996;48.138;11.538;2023-07-13T00:16:50;20.30;77.33
69731;SHT31;56996;48.138;11.538;2023-07-13T00:19:17;20.32;77.37
69731;SHT31;56996;48.138;11.538;2023-07-13T00:21:44;20.34;77.42
69731;SHT31;56996;48.138;11.538;2023-07-13T00:24:13;20.36;77.37
69731;SHT31;56996;48.138;11.538;2023-07-13T00:26:44;20.40;77.37
69731;SHT31;56996;48.138;11.538;2023-07-13T00:29:12;20.41;77.21
69731;SHT31;56996;48.138;11.538;2023-07-13T00:31:40;20.38;77.08
69731;SHT31;56996;48.138;11.538;2023-07-13T00:34:07;20.39;77.10
69731;SHT31;56996;48.138;11.538;2023-07-13T00:36:33;20.38;77.04
69731;SHT31;56996;48.138;11.538;2023-07-13T00:39:00;20.39;77.03
69731;SHT31;56996;48.138;11.538;2023-07-13T00:41:28;20.40;76.83
69731;SHT31;56996;48.138;11.538;2023-07-13T00:43:55;20.39;76.64
69731;SHT31;56996;48.138;11.538;2023-07-13T00:46:26;20.38;76.54
69731;SHT31;56996;48.138;11.538;2023-07-13T00:49:01;20.37;76.35
69731;SHT31;56996;48.138;11.538;2023-07-13T00:54:37;20.35;76.40
69731;SHT31;56996;48.138;11.538;2023-07-13T00:57:10;20.33;76.24
69731;SHT31;56996;48.138;11.538;2023-07-13T00:59:42;20.32;76.43
69731;SHT31;56996;48.138;11.538;2023-07-13T01:02:13;20.32;76.58
69731;SHT31;56996;48.138;11.538;2023-07-13T01:04:40;20.31;76.44
69731;SHT31;56996;48.138;11.538;2023-07-13T01:07:10;20.29;76.52
69731;SHT31;56996;48.138;11.538;2023-07-13T01:09:39;20.31;76.78
69731;SHT31;56996;48.138;11.538;2023-07-13T01:12:06;20.33;76.63
69731;SHT31;56996;48.138;11.538;2023-07-13T01:14:34;20.33;76.46
69731;SHT31;56996;48.138;11.538;2023-07-13T01:17:00;20.31;76.39
69731;SHT31;56996;48.138;11.538;2023-07-13T01:19:41;20.30;76.40
69731;SHT31;56996;48.138;11.538;2023-07-13T01:22:14;20.32;76.41
69731;SHT31;56996;48.138;11.538;2023-07-13T01:24:45;20.32;76.34
69731;SHT31;56996;48.138;11.538;2023-07-13T01:27:16;20.33;76.24
69731;SHT31;56996;48.138;11.538;2023-07-13T01:29:47;20.36;76.24
69731;SHT31;56996;48.138;11.538;2023-07-13T01:32:18;20.35;76.34
69731;SHT31;56996;48.138;11.538;2023-07-13T01:34:53;20.33;76.43
69731;SHT31;56996;48.138;11.538;2023-07-13T01:37:21;20.27;76.50
69731;SHT31;56996;48.138;11.538;2023-07-13T01:39:51;20.27;76.63
69731;SHT31;56996;48.138;11.538;2023-07-13T01:42:18;20.29;76.62
69731;SHT31;56996;48.138;11.538;2023-07-13T01:44:47;20.31;76.54
69731;SHT31;56996;48.138;11.538;2023-07-13T01:47:14;20.31;76.35
69731;SHT31;56996;48.138;11.538;2023-07-13T01:49:40;20.32;76.34
69731;SHT31;56996;48.138;11.538;2023-07-13T01:52:07;20.30;76.46
69731;SHT31;56996;48.138;11.538;2023-07-13T01:54:34;20.24;76.94
69731;SHT31;56996;48.138;11.538;2023-07-13T01:57:01;20.14;77.20
69731;SHT31;56996;48.138;11.538;2023-07-13T01:59:27;20.10;77.37
69731;SHT31;56996;48.138;11.538;2023-07-13T02:01:54;20.09;77.57
69731;SHT31;56996;48.138;11.538;2023-07-13T02:04:21;20.08;77.74
69731;SHT31;56996;48.138;11.538;2023-07-13T02:06:48;20.03;78.02
69731;SHT31;56996;48.138;11.538;2023-07-13T02:09:14;20.03;78.00
69731;SHT31;56996;48.138;11.538;2023-07-13T02:11:41;20.05;77.97
69731;SHT31;56996;48.138;11.538;2023-07-13T02:14:08;20.05;78.02
69731;SHT31;56996;48.138;11.538;2023-07-13T02:16:35;20.03;78.14
69731;SHT31;56996;48.138;11.538;2023-07-13T02:19:02;20.06;77.77
69731;SHT31;56996;48.138;11.538;2023-07-13T02:21:28;20.06;77.58
69731;SHT31;56996;48.138;11.538;2023-07-13T02:23:55;20.08;77.46
69731;SHT31;56996;48.138;11.538;2023-07-13T02:26:23;20.10;77.40
69731;SHT31;56996;48.138;11.538;2023-07-13T02:28:50;20.16;77.41
69731;SHT31;56996;48.138;11.538;2023-07-13T02:31:18;20.19;77.36
69731;SHT31;56996;48.138;11.538;2023-07-13T02:33:46;20.21;77.30
69731;SHT31;56996;48.138;11.538;2023-07-13T02:36:13;20.23;77.24
69731;SHT31;56996;48.138;11.538;2023-07-13T02:38:43;20.26;77.32
69731;SHT31;56996;48.138;11.538;2023-07-13T02:41:10;20.28;77.37
69731;SHT31;56996;48.138;11.538;2023-07-13T02:43:38;20.30;77.41
69731;SHT31;56996;48.138;11.538;2023-07-13T02:46:08;20.32;77.55
69731;SHT31;56996;48.138;11.538;2023-07-13T02:48:35;20.34;77.96
69731;SHT31;56996;48.138;11.538;2023-07-13T02:51:04;20.34;78.37
69731;SHT31;56996;48.138;11.538;2023-07-13T02:53:32;20.31;78.57
69731;SHT31;56996;48.138;11.538;2023-07-13T02:55:59;20.20;78.49
69731;SHT31;56996;48.138;11.538;2023-07-13T02:58:26;20.12;78.49
69731;SHT31;56996;48.138;11.538;2023-07-13T03:00:53;20.06;78.09
69731;SHT31;56996;48.138;11.538;2023-07-13T03:03:20;20.01;78.24
69731;SHT31;56996;48.138;11.538;2023-07-13T03:05:47;19.95;78.44
69731;SHT31;56996;48.138;11.538;2023-07-13T03:08:20;19.89;77.93
69731;SHT31;56996;48.138;11.538;2023-07-13T03:10:49;19.83;77.27
69731;SHT31;56996;48.138;11.538;2023-07-13T03:13:15;19.83;77.13
69731;SHT31;56996;48.138;11.538;2023-07-13T03:15:42;19.78;76.96
69731;SHT31;56996;48.138;11.538;2023-07-13T03:18:09;19.75;76.76
69731;SHT31;56996;48.138;11.538;2023-07-13T03:20:36;19.70;76.88
69731;SHT31;56996;48.138;11.538;2023-07-13T03:23:03;19.65;77.28
69731;SHT31;56996;48.138;11.538;2023-07-13T03:25:30;19.56;77.26
69731;SHT31;56996;48.138;11.538;2023-07-13T03:27:59;19.51;77.28
69731;SHT31;56996;48.138;11.538;2023-07-13T03:30:26;19.51;77.23
69731;SHT31;56996;48.138;11.538;2023-07-13T03:32:54;19.46;77.24
69731;SHT31;56996;48.138;11.538;2023-07-13T03:35:20;19.47;77.25
69731;SHT31;56996;48.138;11.538;2023-07-13T03:37:47;19.49;76.65
69731;SHT31;56996;48.138;11.538;2023-07-13T03:40:17;19.50;76.46
69731;SHT31;56996;48.138;11.538;2023-07-13T03:42:44;19.52;76.43
69731;SHT31;56996;48.138;11.538;2023-07-13T03:45:11;19.53;76.40
69731;SHT31;56996;48.138;11.538;2023-07-13T03:47:38;19.50;76.45
69731;SHT31;56996;48.138;11.538;2023-07-13T03:50:05;19.52;76.40
69731;SHT31;56996;48.138;11.538;2023-07-13T03:52:34;19.51;76.22
69731;SHT31;56996;48.138;11.538;2023-07-13T03:55:01;19.52;76.78
69731;SHT31;56996;48.138;11.538;2023-07-13T03:57:28;19.53;77.12
69731;SHT31;56996;48.138;11.538;2023-07-13T03:59:56;19.53;76.84
69731;SHT31;56996;48.138;11.538;2023-07-13T04:02:23;19.51;76.67
69731;SHT31;56996;48.138;11.538;2023-07-13T04:04:50;19.49;76.37
69731;SHT31;56996;48.138;11.538;2023-07-13T04:07:17;19.48;76.68
69731;SHT31;56996;48.138;11.538;2023-07-13T04:09:45;19.46;76.93
69731;SHT31;56996;48.138;11.538;2023-07-13T04:12:12;19.46;77.05
69731;SHT31;56996;48.138;11.538;2023-07-13T04:14:39;19.44;76.77
69731;SHT31;56996;48.138;11.538;2023-07-13T04:17:05;19.38;76.82
69731;SHT31;56996;48.138;11.538;2023-07-13T04:19:32;19.33;76.92
69731;SHT31;56996;48.138;11.538;2023-07-13T04:21:59;19.32;77.24
69731;SHT31;56996;48.138;11.538;2023-07-13T04:24:25;19.30;76.98
69731;SHT31;56996;48.138;11.538;2023-07-13T04:26:52;19.26;76.33
69731;SHT31;56996;48.138;11.538;2023-07-13T04:29:19;19.22;76.46
69731;SHT31;56996;48.138;11.538;2023-07-13T04:31:46;19.26;76.59
69731;SHT31;56996;48.138;11.538;2023-07-13T04:34:13;19.24;76.69
69731;SHT31;56996;48.138;11.538;2023-07-13T04:36:40;19.25;77.12
69731;SHT31;56996;48.138;11.538;2023-07-13T04:39:06;19.30;77.11
69731;SHT31;56996;48.138;11.538;2023-07-13T04:41:33;19.32;76.74
69731;SHT31;56996;48.138;11.538;2023-07-13T04:44:00;19.32;76.87
69731;SHT31;56996;48.138;11.538;2023-07-13T04:46:27;19.36;77.13
69731;SHT31;56996;48.138;11.538;2023-07-13T04:48:54;19.37;76.54
69731;SHT31;56996;48.138;11.538;2023-07-13T04:51:21;19.36;76.44
69731;SHT31;56996;48.138;11.538;2023-07-13T04:53:47;19.35;76.34
69731;SHT31;56996;48.138;11.538;2023-07-13T04:56:16;19.36;76.19
69731;SHT31;56996;48.138;11.538;2023-07-13T04:58:43;19.39;75.83
69731;SHT31;56996;48.138;11.538;2023-07-13T05:01:10;19.42;75.72
69731;SHT31;56996;48.138;11.538;2023-07-13T05:03:37;19.45;75.82
69731;SHT31;56996;48.138;11.538;2023-07-13T05:06:06;19.49;75.72
69731;SHT31;56996;48.138;11.538;2023-07-13T05:08:37;19.48;75.98
69731;SHT31;56996;48.138;11.538;2023-07-13T05:11:05;19.49;75.47
69731;SHT31;56996;48.138;11.538;2023-07-13T05:13:34;19.49;75.33
69731;SHT31;56996;48.138;11.538;2023-07-13T05:16:01;19.52;75.64
69731;SHT31;56996;48.138;11.538;2023-07-13T05:18:32;19.53;75.85
69731;SHT31;56996;48.138;11.538;2023-07-13T05:21:04;19.49;75.55
69731;SHT31;56996;48.138;11.538;2023-07-13T05:23:35;19.41;76.13
69731;SHT31;56996;48.138;11.538;2023-07-13T05:26:03;19.41;76.66
69731;SHT31;56996;48.138;11.538;2023-07-13T05:28:35;19.48;76.34
69731;SHT31;56996;48.138;11.538;2023-07-13T05:31:03;19.56;75.77
69731;SHT31;56996;48.138;11.538;2023-07-13T05:33:30;19.61;75.61
69731;SHT31;56996;48.138;11.538;2023-07-13T05:35:57;19.62;75.82
69731;SHT31;56996;48.138;11.538;2023-07-13T05:38:24;19.64;75.67
69731;SHT31;56996;48.138;11.538;2023-07-13T05:40:50;19.68;75.13
69731;SHT31;56996;48.138;11.538;2023-07-13T05:43:17;19.70;74.97
69731;SHT31;56996;48.138;11.538;2023-07-13T05:45:44;19.71;74.91
69731;SHT31;56996;48.138;11.538;2023-07-13T05:48:10;19.72;74.87
69731;SHT31;56996;48.138;11.538;2023-07-13T05:50:37;19.75;74.92
69731;SHT31;56996;48.138;11.538;2023-07-13T05:53:04;19.82;75.21
69731;SHT31;56996;48.138;11.538;2023-07-13T05:55:31;19.92;75.16
69731;SHT31;56996;48.138;11.538;2023-07-13T05:57:59;20.05;74.92
69731;SHT31;56996;48.138;11.538;2023-07-13T06:00:27;20.17;74.49
69731;SHT31;56996;48.138;11.538;2023-07-13T06:02:53;20.32;74.04
69731;SHT31;56996;48.138;11.538;2023-07-13T06:05:22;20.48;73.57
69731;SHT31;56996;48.138;11.538;2023-07-13T06:07:49;20.59;73.48
69731;SHT31;56996;48.138;11.538;2023-07-13T06:10:15;20.65;73.59
69731;SHT31;56996;48.138;11.538;2023-07-13T06:12:42;20.70;73.71
69731;SHT31;56996;48.138;11.538;2023-07-13T06:15:09;20.78;73.23
69731;SHT31;56996;48.138;11.538;2023-07-13T06:17:36;20.87;72.77
69731;SHT31;56996;48.138;11.538;2023-07-13T06:20:03;20.93;72.25
69731;SHT31;56996;48.138;11.538;2023-07-13T06:22:30;21.09;72.03
69731;SHT31;56996;48.138;11.538;2023-07-13T06:24:57;21.39;71.57
69731;SHT31;56996;48.138;11.538;2023-07-13T06:27:24;21.71;71.26
69731;SHT31;56996;48.138;11.538;2023-07-13T06:29:52;21.96;70.18
69731;SHT31;56996;48.138;11.538;2023-07-13T06:32:18;22.22;69.11
69731;SHT31;56996;48.138;11.538;2023-07-13T06:34:45;22.36;68.89
69731;SHT31;56996;48.138;11.538;2023-07-13T06:37:12;22.48;68.27
69731;SHT31;56996;48.138;11.538;2023-07-13T06:39:39;22.54;67.86
69731;SHT31;56996;48.138;11.538;2023-07-13T06:42:05;22.53;67.30
69731;SHT31;56996;48.138;11.538;2023-07-13T06:44:32;22.49;67.09
69731;SHT31;56996;48.138;11.538;2023-07-13T06:47:00;22.46;66.76
69731;SHT31;56996;48.138;11.538;2023-07-13T06:49:27;22.43;66.11
69731;SHT31;56996;48.138;11.538;2023-07-13T06:51:53;22.41;66.75
69731;SHT31;56996;48.138;11.538;2023-07-13T06:54:20;22.39;66.59
69731;SHT31;56996;48.138;11.538;2023-07-13T06:56:47;22.37;66.19
69731;SHT31;56996;48.138;11.538;2023-07-13T06:59:13;22.36;65.64
69731;SHT31;56996;48.138;11.538;2023-07-13T07:01:40;22.38;65.29
69731;SHT31;56996;48.138;11.538;2023-07-13T07:04:07;22.42;65.43
69731;SHT31;56996;48.138;11.538;2023-07-13T07:06:35;22.49;64.98
69731;SHT31;56996;48.138;11.538;2023-07-13T07:09:01;22.50;63.45
69731;SHT31;56996;48.138;11.538;2023-07-13T07:11:28;22.52;63.84
69731;SHT31;56996;48.138;11.538;2023-07-13T07:13:55;22.63;63.74
69731;SHT31;56996;48.138;11.538;2023-07-13T07:16:23;22.75;62.63
69731;SHT31;56996;48.138;11.538;2023-07-13T07:18:51;22.73;62.26
69731;SHT31;56996;48.138;11.538;2023-07-13T07:21:18;22.64;62.51
69731;SHT31;56996;48.138;11.538;2023-07-13T07:23:45;22.63;62.60
69731;SHT31;56996;48.138;11.538;2023-07-13T07:26:12;22.62;61.58
69731;SHT31;56996;48.138;11.538;2023-07-13T07:28:39;22.64;61.77
69731;SHT31;56996;48.138;11.538;2023-07-13T07:31:12;22.66;61.50
69731;SHT31;56996;48.138;11.538;2023-07-13T07:33:42;22.68;61.29
69731;SHT31;56996;48.138;11.538;2023-07-13T07:36:09;22.69;61.29
69731;SHT31;56996;48.138;11.538;2023-07-13T07:38:39;22.69;60.76
69731;SHT31;56996;48.138;11.538;2023-07-13T07:41:06;22.75;60.93
69731;SHT31;56996;48.138;11.538;2023-07-13T07:43:36;22.81;60.82
69731;SHT31;56996;48.138;11.538;2023-07-13T07:46:03;22.80;60.40
69731;SHT31;56996;48.138;11.538;2023-07-13T07:48:30;22.72;60.61
69731;SHT31;56996;48.138;11.538;2023-07-13T07:50:57;22.62;60.72
69731;SHT31;56996;48.138;11.538;2023-07-13T07:53:24;22.51;61.10
69731;SHT31;56996;48.138;11.538;2023-07-13T07:55:54;22.46;60.83
69731;SHT31;56996;48.138;11.538;2023-07-13T07:58:40;22.34;61.15
69731;SHT31;56996;48.138;11.538;2023-07-13T08:01:10;22.32;60.61
69731;SHT31;56996;48.138;11.538;2023-07-13T08:03:40;22.20;60.13
69731;SHT31;56996;48.138;11.538;2023-07-13T08:06:10;22.10;59.76
69731;SHT31;56996;48.138;11.538;2023-07-13T08:08:39;22.05;59.82
69731;SHT31;56996;48.138;11.538;2023-07-13T08:11:07;22.00;59.73
69731;SHT31;56996;48.138;11.538;2023-07-13T08:13:39;21.95;59.67
69731;SHT31;56996;48.138;11.538;2023-07-13T08:16:06;21.91;59.78
69731;SHT31;56996;48.138;11.538;2023-07-13T08:18:33;21.87;60.64
69731;SHT31;56996;48.138;11.538;2023-07-13T08:21:05;21.89;60.67
69731;SHT31;56996;48.138;11.538;2023-07-13T08:23:35;21.89;60.53
69731;SHT31;56996;48.138;11.538;2023-07-13T08:26:03;21.87;60.29
69731;SHT31;56996;48.138;11.538;2023-07-13T08:28:30;21.84;60.46
69731;SHT31;56996;48.138;11.538;2023-07-13T08:31:05;21.76;59.94
69731;SHT31;56996;48.138;11.538;2023-07-13T08:33:34;21.51;59.76
69731;SHT31;56996;48.138;11.538;2023-07-13T08:36:02;21.40;59.76
69731;SHT31;56996;48.138;11.538;2023-07-13T08:38:31;21.43;59.27
69731;SHT31;56996;48.138;11.538;2023-07-13T08:40:58;21.43;58.96
69731;SHT31;56996;48.138;11.538;2023-07-13T08:43:26;21.48;58.38
69731;SHT31;56996;48.138;11.538;2023-07-13T08:45:59;21.55;57.10
69731;SHT31;56996;48.138;11.538;2023-07-13T08:48:36;21.57;56.68
69731;SHT31;56996;48.138;11.538;2023-07-13T08:54:01;21.80;53.99
69731;SHT31;56996;48.138;11.538;2023-07-13T08:56:32;21.83;53.82
69731;SHT31;56996;48.138;11.538;2023-07-13T08:59:14;21.88;54.08
69731;SHT31;56996;48.138;11.538;2023-07-13T09:05:01;21.95;53.04
69731;SHT31;56996;48.138;11.538;2023-07-13T09:10:45;21.91;51.62
69731;SHT31;56996;48.138;11.538;2023-07-13T09:13:37;21.89;52.39
69731;SHT31;56996;48.138;11.538;2023-07-13T09:16:27;21.85;50.56
69731;SHT31;56996;48.138;11.538;2023-07-13T09:18:54;21.73;50.30
69731;SHT31;56996;48.138;11.538;2023-07-13T09:21:30;21.75;50.83
69731;SHT31;56996;48.138;11.538;2023-07-13T09:24:34;21.89;51.25
69731;SHT31;56996;48.138;11.538;2023-07-13T09:27:19;22.10;50.76
69731;SHT31;56996;48.138;11.538;2023-07-13T09:29:57;22.22;50.00
69731;SHT31;56996;48.138;11.538;2023-07-13T09:32:38;22.25;49.92
69731;SHT31;56996;48.138;11.538;2023-07-13T09:35:10;22.33;49.57
69731;SHT31;56996;48.138;11.538;2023-07-13T09:37:42;22.37;48.92
69731;SHT31;56996;48.138;11.538;2023-07-13T09:40:14;22.34;48.76
69731;SHT31;56996;48.138;11.538;2023-07-13T09:42:54;22.36;48.57
69731;SHT31;56996;48.138;11.538;2023-07-13T09:45:28;22.39;47.69
69731;SHT31;56996;48.138;11.538;2023-07-13T09:48:20;22.36;48.31
69731;SHT31;56996;48.138;11.538;2023-07-13T09:50:46;22.45;48.04
69731;SHT31;56996;48.138;11.538;2023-07-13T09:53:14;22.55;47.74
69731;SHT31;56996;48.138;11.538;2023-07-13T09:55:47;22.71;47.36
69731;SHT31;56996;48.138;11.538;2023-07-13T10:00:54;23.22;46.29
69731;SHT31;56996;48.138;11.538;2023-07-13T10:03:28;23.51;44.85
69731;SHT31;56996;48.138;11.538;2023-07-13T10:06:16;23.72;45.57
69731;SHT31;56996;48.138;11.538;2023-07-13T10:08:51;24.00;45.69
69731;SHT31;56996;48.138;11.538;2023-07-13T10:11:23;24.32;45.83
69731;SHT31;56996;48.138;11.538;2023-07-13T10:14:01;24.69;45.34
69731;SHT31;56996;48.138;11.538;2023-07-13T10:16:36;24.93;43.31
69731;SHT31;56996;48.138;11.538;2023-07-13T10:19:11;25.08;42.02
69731;SHT31;56996;48.138;11.538;2023-07-13T10:21:50;25.34;40.75
69731;SHT31;56996;48.138;11.538;2023-07-13T10:24:22;25.47;38.98
69731;SHT31;56996;48.138;11.538;2023-07-13T10:32:27;25.75;39.90
69731;SHT31;56996;48.138;11.538;2023-07-13T10:34:54;26.12;38.87
69731;SHT31;56996;48.138;11.538;2023-07-13T10:37:23;26.12;38.29
69731;SHT31;56996;48.138;11.538;2023-07-13T10:39:54;26.08;39.29
69731;SHT31;56996;48.138;11.538;2023-07-13T10:42:28;26.35;39.18
69731;SHT31;56996;48.138;11.538;2023-07-13T10:44:59;26.36;38.11
69731;SHT31;56996;48.138;11.538;2023-07-13T10:47:26;26.25;38.66
69731;SHT31;56996;48.138;11.538;2023-07-13T10:49:55;26.13;38.68
69731;SHT31;56996;48.138;11.538;2023-07-13T10:58:28;26.62;39.04
69731;SHT31;56996;48.138;11.538;2023-07-13T11:01:04;26.52;38.71
69731;SHT31;56996;48.138;11.538;2023-07-13T11:08:53;26.53;40.29
69731;SHT31;56996;48.138;11.538;2023-07-13T11:21:29;26.50;39.47
69731;SHT31;56996;48.138;11.538;2023-07-13T11:24:12;26.77;38.82
69731;SHT31;56996;48.138;11.538;2023-07-13T11:32:00;27.15;35.19
69731;SHT31;56996;48.138;11.538;2023-07-13T11:34:48;26.82;34.77
69731;SHT31;56996;48.138;11.538;2023-07-13T11:37:16;26.80;36.29
69731;SHT31;56996;48.138;11.538;2023-07-13T11:39:45;26.79;35.19
69731;SHT31;56996;48.138;11.538;2023-07-13T11:42:15;26.42;35.43
69731;SHT31;56996;48.138;11.538;2023-07-13T11:44:45;26.02;35.97
69731;SHT31;56996;48.138;11.538;2023-07-13T11:47:29;25.78;36.29
69731;SHT31;56996;48.138;11.538;2023-07-13T11:49:57;25.83;37.20
69731;SHT31;56996;48.138;11.538;2023-07-13T11:52:35;25.86;36.56
69731;SHT31;56996;48.138;11.538;2023-07-13T11:55:04;25.68;37.24
69731;SHT31;56996;48.138;11.538;2023-07-13T11:57:45;25.65;37.17
69731;SHT31;56996;48.138;11.538;2023-07-13T12:00:17;25.61;37.30
69731;SHT31;56996;48.138;11.538;2023-07-13T12:02:49;25.60;37.72
69731;SHT31;56996;48.138;11.538;2023-07-13T12:05:19;25.62;37.97
69731;SHT31;56996;48.138;11.538;2023-07-13T12:07:47;25.78;37.66
69731;SHT31;56996;48.138;11.538;2023-07-13T12:10:20;25.91;37.46
69731;SHT31;56996;48.138;11.538;2023-07-13T12:13:00;26.06;37.08
69731;SHT31;56996;48.138;11.538;2023-07-13T12:15:35;26.23;36.88
69731;SHT31;56996;48.138;11.538;2023-07-13T12:18:16;26.33;37.12
69731;SHT31;56996;48.138;11.538;2023-07-13T12:20:50;26.45;37.47
69731;SHT31;56996;48.138;11.538;2023-07-13T12:23:22;26.53;37.78
69731;SHT31;56996;48.138;11.538;2023-07-13T12:25:55;26.21;38.37
69731;SHT31;56996;48.138;11.538;2023-07-13T12:31:34;26.13;38.50
69731;SHT31;56996;48.138;11.538;2023-07-13T12:34:14;26.51;38.10
69731;SHT31;56996;48.138;11.538;2023-07-13T12:37:01;26.63;37.90
69731;SHT31;56996;48.138;11.538;2023-07-13T12:39:36;26.35;37.97
69731;SHT31;56996;48.138;11.538;2023-07-13T12:42:21;26.13;38.34
69731;SHT31;56996;48.138;11.538;2023-07-13T12:44:56;26.35;38.24
69731;SHT31;56996;48.138;11.538;2023-07-13T12:47:42;26.51;37.98
69731;SHT31;56996;48.138;11.538;2023-07-13T12:50:15;26.54;37.43
69731;SHT31;56996;48.138;11.538;2023-07-13T12:52:56;26.58;37.14
69731;SHT31;56996;48.138;11.538;2023-07-13T12:55:30;26.71;37.28
69731;SHT31;56996;48.138;11.538;2023-07-13T12:58:02;27.07;36.98
69731;SHT31;56996;48.138;11.538;2023-07-13T13:00:32;27.39;36.69
69731;SHT31;56996;48.138;11.538;2023-07-13T13:03:38;27.56;36.51
69731;SHT31;56996;48.138;11.538;2023-07-13T13:08:45;27.41;35.89
69731;SHT31;56996;48.138;11.538;2023-07-13T13:11:18;27.39;35.88
69731;SHT31;56996;48.138;11.538;2023-07-13T13:13:46;27.51;35.80
69731;SHT31;56996;48.138;11.538;2023-07-13T13:16:19;27.58;35.63
69731;SHT31;56996;48.138;11.538;2023-07-13T13:18:53;27.65;35.56
69731;SHT31;56996;48.138;11.538;2023-07-13T13:21:23;27.76;35.41
69731;SHT31;56996;48.138;11.538;2023-07-13T13:23:52;27.80;35.24
69731;SHT31;56996;48.138;11.538;2023-07-13T13:26:21;27.86;35.08
69731;SHT31;56996;48.138;11.538;2023-07-13T13:28:49;27.90;34.76
69731;SHT31;56996;48.138;11.538;2023-07-13T13:31:16;27.44;33.64
69731;SHT31;56996;48.138;11.538;2023-07-13T13:33:44;27.00;34.47
69731;SHT31;56996;48.138;11.538;2023-07-13T13:36:16;26.93;34.92
69731;SHT31;56996;48.138;11.538;2023-07-13T13:38:45;27.05;35.16
69731;SHT31;56996;48.138;11.538;2023-07-13T13:41:14;27.13;35.31
69731;SHT31;56996;48.138;11.538;2023-07-13T13:43:42;27.33;34.89
69731;SHT31;56996;48.138;11.538;2023-07-13T13:46:16;27.41;34.66
69731;SHT31;56996;48.138;11.538;2023-07-13T13:48:47;27.33;34.65
69731;SHT31;56996;48.138;11.538;2023-07-13T13:51:17;27.29;34.61
69731;SHT31;56996;48.138;11.538;2023-07-13T13:53:47;27.14;34.72
69731;SHT31;56996;48.138;11.538;2023-07-13T13:56:15;27.12;35.43
69731;SHT31;56996;48.138;11.538;2023-07-13T13:58:45;27.09;34.55
69731;SHT31;56996;48.138;11.538;2023-07-13T14:01:13;26.91;34.85
69731;SHT31;56996;48.138;11.538;2023-07-13T14:03:44;26.84;34.95
69731;SHT31;56996;48.138;11.538;2023-07-13T14:06:12;26.89;35.41
69731;SHT31;56996;48.138;11.538;2023-07-13T14:08:41;27.15;35.40
69731;SHT31;56996;48.138;11.538;2023-07-13T14:11:12;27.43;35.08
69731;SHT31;56996;48.138;11.538;2023-07-13T14:13:42;27.47;34.67
69731;SHT31;56996;48.138;11.538;2023-07-13T14:16:17;27.42;34.98
69731;SHT31;56996;48.138;11.538;2023-07-13T14:18:47;27.61;34.90
69731;SHT31;56996;48.138;11.538;2023-07-13T14:21:17;27.85;34.46
69731;SHT31;56996;48.138;11.538;2023-07-13T14:23:46;28.16;33.84
69731;SHT31;56996;48.138;11.538;2023-07-13T14:26:16;28.27;33.75
69731;SHT31;56996;48.138;11.538;2023-07-13T14:28:47;28.15;33.40
69731;SHT31;56996;48.138;11.538;2023-07-13T14:31:16;27.96;33.76
69731;SHT31;56996;48.138;11.538;2023-07-13T14:33:44;27.72;34.07
69731;SHT31;56996;48.138;11.538;2023-07-13T14:36:31;27.56;34.40
69731;SHT31;56996;48.138;11.538;2023-07-13T14:39:05;27.50;34.42
69731;SHT31;56996;48.138;11.538;2023-07-13T14:41:43;27.64;34.04
69731;SHT31;56996;48.138;11.538;2023-07-13T14:44:14;27.64;34.13
69731;SHT31;56996;48.138;11.538;2023-07-13T14:46:44;27.81;33.98
69731;SHT31;56996;48.138;11.538;2023-07-13T14:49:14;27.88;33.94
69731;SHT31;56996;48.138;11.538;2023-07-13T14:51:54;27.83;33.84
69731;SHT31;56996;48.138;11.538;2023-07-13T14:54:41;27.74;33.83
69731;SHT31;56996;48.138;11.538;2023-07-13T14:57:13;27.55;33.69
69731;SHT31;56996;48.138;11.538;2023-07-13T14:59:43;27.25;33.72
69731;SHT31;56996;48.138;11.538;2023-07-13T15:02:18;26.91;34.13
69731;SHT31;56996;48.138;11.538;2023-07-13T15:04:53;26.79;34.56
69731;SHT31;56996;48.138;11.538;2023-07-13T15:07:21;26.60;34.71
69731;SHT31;56996;48.138;11.538;2023-07-13T15:09:50;26.64;34.99
69731;SHT31;56996;48.138;11.538;2023-07-13T15:12:19;26.65;35.19
69731;SHT31;56996;48.138;11.538;2023-07-13T15:14:46;26.76;35.11
69731;SHT31;56996;48.138;11.538;2023-07-13T15:17:24;26.87;34.98
69731;SHT31;56996;48.138;11.538;2023-07-13T15:19:58;26.94;34.96
69731;SHT31;56996;48.138;11.538;2023-07-13T15:22:25;27.03;34.89
69731;SHT31;56996;48.138;11.538;2023-07-13T15:24:52;26.88;34.45
69731;SHT31;56996;48.138;11.538;2023-07-13T15:27:19;26.77;34.93
69731;SHT31;56996;48.138;11.538;2023-07-13T15:29:46;26.79;34.94
69731;SHT31;56996;48.138;11.538;2023-07-13T15:32:13;26.76;34.75
69731;SHT31;56996;48.138;11.538;2023-07-13T15:34:41;26.72;34.96
69731;SHT31;56996;48.138;11.538;2023-07-13T15:37:11;26.70;35.19
69731;SHT31;56996;48.138;11.538;2023-07-13T15:39:41;26.67;35.10
69731;SHT31;56996;48.138;11.538;2023-07-13T15:42:13;26.56;35.24
69731;SHT31;56996;48.138;11.538;2023-07-13T15:44:42;26.56;35.52
69731;SHT31;56996;48.138;11.538;2023-07-13T15:47:12;26.59;35.46
69731;SHT31;56996;48.138;11.538;2023-07-13T15:49:41;26.61;35.47
69731;SHT31;56996;48.138;11.538;2023-07-13T15:52:11;26.66;35.38
69731;SHT31;56996;48.138;11.538;2023-07-13T15:54:49;26.72;35.27
69731;SHT31;56996;48.138;11.538;2023-07-13T15:57:16;26.69;35.20
69731;SHT31;56996;48.138;11.538;2023-07-13T15:59:43;26.61;35.39
69731;SHT31;56996;48.138;11.538;2023-07-13T16:02:16;26.55;35.60
69731;SHT31;56996;48.138;11.538;2023-07-13T16:04:45;26.49;35.59
69731;SHT31;56996;48.138;11.538;2023-07-13T16:07:14;26.42;35.95
69731;SHT31;56996;48.138;11.538;2023-07-13T16:09:45;26.38;36.19
69731;SHT31;56996;48.138;11.538;2023-07-13T16:12:13;26.29;35.90
69731;SHT31;56996;48.138;11.538;2023-07-13T16:14:41;26.17;36.12
69731;SHT31;56996;48.138;11.538;2023-07-13T16:17:10;26.11;36.41
69731;SHT31;56996;48.138;11.538;2023-07-13T16:19:40;26.04;36.72
69731;SHT31;56996;48.138;11.538;2023-07-13T16:22:18;25.93;36.90
69731;SHT31;56996;48.138;11.538;2023-07-13T16:24:46;25.85;36.99
69731;SHT31;56996;48.138;11.538;2023-07-13T16:27:13;25.84;37.16